sensor_id;sensor_type;location;lat;lon;timestamp;P1;durP1;ratioP1;P2;durP2;ratioP2
1276;SDS011;631;51.024;13.826;2023-05-15T00:02:21;12.80;;;12.00;;
1276;SDS011;631;51.024;13.826;2023-05-15T00:04:47;12.87;;;11.97;;
1276;SDS011;631;51.024;13.826;2023-05-15T00:07:12;13.00;;;12.20;;
1276;SDS011;631;51.024;13.826;2023-05-15T00:09:38;13.30;;;12.20;;
1276;SDS011;631;51.024;13.826;2023-05-15T00:12:04;12.63;;;11.83;;
1276;SDS011;631;51.024;13.826;2023-05-15T00:14:30;12.63;;;11.80;;
1276;SDS011;631;51.024;13.826;2023-05-15T00:16:55;13.27;;;12.47;;
1276;SDS011;631;51.024;13.826;2023-05-15T00:19:21;13.57;;;12.67;;
1276;SDS011;631;51.024;13.826;2023-05-15T00:21:46;12.97;;;12.07;;
1276;SDS011;631;51.024;13.826;2023-05-15T00:24:12;13.37;;;12.50;;
1276;SDS011;631;51.024;13.826;2023-05-15T00:26:38;12.83;;;11.93;;
1276;SDS011;631;51.024;13.826;2023-05-15T00:29:03;13.50;;;12.50;;
1276;SDS011;631;51.024;13.826;2023-05-15T00:31:29;13.50;;;12.67;;
1276;SDS011;631;51.024;13.826;2023-05-15T00:33:54;12.67;;;11.87;;
1276;SDS011;631;51.024;13.826;2023-05-15T00:36:20;12.90;;;12.07;;
1276;SDS011;631;51.024;13.826;2023-05-15T00:38:47;12.97;;;12.03;;
1276;SDS011;631;51.024;13.826;2023-05-15T00:41:12;12.73;;;11.87;;
1276;SDS011;631;51.024;13.826;2023-05-15T00:43:39;13.10;;;12.20;;
1276;SDS011;631;51.024;13.826;2023-05-15T00:46:06;12.97;;;12.17;;
1276;SDS011;631;51.024;13.826;2023-05-15T00:48:32;13.30;;;12.50;;
1276;SDS011;631;51.024;13.826;2023-05-15T00:50:58;13.80;;;12.90;;
1276;SDS011;631;51.024;13.826;2023-05-15T00:53:25;12.77;;;11.97;;
1276;SDS011;631;51.024;13.826;2023-05-15T00:55:53;13.30;;;12.30;;
1276;SDS011;631;51.024;13.826;2023-05-15T00:58:21;13.20;;;12.30;;
1276;SDS011;631;51.024;13.826;2023-05-15T01:00:48;13.40;;;12.50;;
1276;SDS011;631;51.024;13.826;2023-05-15T01:03:14;12.97;;;12.17;;
1276;SDS011;631;51.024;13.826;2023-05-15T01:05:40;12.60;;;11.70;;
1276;SDS011;631;51.024;13.826;2023-05-15T01:08:11;13.37;;;12.47;;
1276;SDS011;631;51.024;13.826;2023-05-15T01:11:13;13.47;;;12.40;;
1276;SDS011;631;51.024;13.826;2023-05-15T01:13:40;12.43;;;11.60;;
1276;SDS011;631;51.024;13.826;2023-05-15T01:16:06;13.20;;;12.30;;
1276;SDS011;631;51.024;13.826;2023-05-15T01:18:33;12.83;;;12.03;;
1276;SDS011;631;51.024;13.826;2023-05-15T01:23:37;12.97;;;11.97;;
1276;SDS011;631;51.024;13.826;2023-05-15T01:28:47;13.10;;;12.20;;
1276;SDS011;631;51.024;13.826;2023-05-15T01:31:22;13.70;;;12.70;;
1276;SDS011;631;51.024;13.826;2023-05-15T01:33:51;13.77;;;12.83;;
1276;SDS011;631;51.024;13.826;2023-05-15T01:36:23;13.77;;;12.77;;
1276;SDS011;631;51.024;13.826;2023-05-15T01:39:00;13.00;;;12.07;;
1276;SDS011;631;51.024;13.826;2023-05-15T01:41:28;12.60;;;11.80;;
1276;SDS011;631;51.024;13.826;2023-05-15T01:44:13;13.43;;;12.53;;
1276;SDS011;631;51.024;13.826;2023-05-15T01:46:44;13.13;;;12.30;;
1276;SDS011;631;51.024;13.826;2023-05-15T01:49:13;12.23;;;11.33;;
1276;SDS011;631;51.024;13.826;2023-05-15T01:51:43;12.53;;;11.70;;
1276;SDS011;631;51.024;13.826;2023-05-15T01:54:12;12.80;;;11.90;;
1276;SDS011;631;51.024;13.826;2023-05-15T01:56:39;13.43;;;12.53;;
1276;SDS011;631;51.024;13.826;2023-05-15T01:59:09;12.77;;;11.90;;
1276;SDS011;631;51.024;13.826;2023-05-15T02:01:39;12.77;;;11.87;;
1276;SDS011;631;51.024;13.826;2023-05-15T02:04:06;12.30;;;11.50;;
1276;SDS011;631;51.024;13.826;2023-05-15T02:06:33;13.03;;;12.13;;
1276;SDS011;631;51.024;13.826;2023-05-15T02:09:00;13.23;;;12.23;;
1276;SDS011;631;51.024;13.826;2023-05-15T02:11:27;13.17;;;12.27;;
1276;SDS011;631;51.024;13.826;2023-05-15T02:13:53;13.57;;;12.67;;
1276;SDS011;631;51.024;13.826;2023-05-15T02:16:21;12.93;;;12.03;;
1276;SDS011;631;51.024;13.826;2023-05-15T02:18:47;13.23;;;12.30;;
1276;SDS011;631;51.024;13.826;2023-05-15T02:21:13;12.40;;;11.60;;
1276;SDS011;631;51.024;13.826;2023-05-15T02:23:40;13.13;;;12.23;;
1276;SDS011;631;51.024;13.826;2023-05-15T02:29:01;12.70;;;11.80;;
1276;SDS011;631;51.024;13.826;2023-05-15T02:34:25;13.20;;;12.20;;
1276;SDS011;631;51.024;13.826;2023-05-15T02:36:59;12.93;;;11.93;;
1276;SDS011;631;51.024;13.826;2023-05-15T02:39:27;12.90;;;12.00;;
1276;SDS011;631;51.024;13.826;2023-05-15T02:41:53;12.70;;;11.80;;
1276;SDS011;631;51.024;13.826;2023-05-15T02:44:21;13.37;;;12.37;;
1276;SDS011;631;51.024;13.826;2023-05-15T02:46:47;13.20;;;12.30;;
1276;SDS011;631;51.024;13.826;2023-05-15T02:49:14;13.73;;;12.77;;
1276;SDS011;631;51.024;13.826;2023-05-15T02:51:40;12.47;;;11.50;;
1276;SDS011;631;51.024;13.826;2023-05-15T02:54:06;12.50;;;11.60;;
1276;SDS011;631;51.024;13.826;2023-05-15T02:56:33;13.70;;;12.60;;
1276;SDS011;631;51.024;13.826;2023-05-15T02:58:59;13.70;;;12.70;;
1276;SDS011;631;51.024;13.826;2023-05-15T03:01:25;13.13;;;12.10;;
1276;SDS011;631;51.024;13.826;2023-05-15T03:03:50;12.60;;;11.70;;
1276;SDS011;631;51.024;13.826;2023-05-15T03:06:16;13.47;;;12.37;;
1276;SDS011;631;51.024;13.826;2023-05-15T03:08:42;13.43;;;12.53;;
1276;SDS011;631;51.024;13.826;2023-05-15T03:11:08;12.17;;;11.27;;
1276;SDS011;631;51.024;13.826;2023-05-15T03:13:34;14.33;;;13.23;;
1276;SDS011;631;51.024;13.826;2023-05-15T03:15:59;13.33;;;12.43;;
1276;SDS011;631;51.024;13.826;2023-05-15T03:18:25;12.83;;;11.83;;
1276;SDS011;631;51.024;13.826;2023-05-15T03:20:51;12.70;;;11.80;;
1276;SDS011;631;51.024;13.826;2023-05-15T03:23:17;12.30;;;11.40;;
1276;SDS011;631;51.024;13.826;2023-05-15T03:25:42;13.00;;;12.10;;
1276;SDS011;631;51.024;13.826;2023-05-15T03:28:08;14.17;;;12.97;;
1276;SDS011;631;51.024;13.826;2023-05-15T03:30:34;13.17;;;12.30;;
1276;SDS011;631;51.024;13.826;2023-05-15T03:33:00;14.00;;;13.00;;
1276;SDS011;631;51.024;13.826;2023-05-15T03:35:28;12.97;;;12.03;;
1276;SDS011;631;51.024;13.826;2023-05-15T03:37:54;13.03;;;12.03;;
1276;SDS011;631;51.024;13.826;2023-05-15T03:40:20;13.83;;;12.83;;
1276;SDS011;631;51.024;13.826;2023-05-15T03:42:45;13.07;;;12.17;;
1276;SDS011;631;51.024;13.826;2023-05-15T03:45:11;13.27;;;12.37;;
1276;SDS011;631;51.024;13.826;2023-05-15T03:47:36;13.10;;;12.10;;
1276;SDS011;631;51.024;13.826;2023-05-15T03:50:02;13.63;;;12.63;;
1276;SDS011;631;51.024;13.826;2023-05-15T03:52:28;12.87;;;11.87;;
1276;SDS011;631;51.024;13.826;2023-05-15T03:54:53;12.40;;;11.40;;
1276;SDS011;631;51.024;13.826;2023-05-15T03:57:19;12.30;;;11.40;;
1276;SDS011;631;51.024;13.826;2023-05-15T03:59:45;12.50;;;11.60;;
1276;SDS011;631;51.024;13.826;2023-05-15T04:02:10;11.97;;;11.07;;
1276;SDS011;631;51.024;13.826;2023-05-15T04:04:36;12.33;;;11.23;;
1276;SDS011;631;51.024;13.826;2023-05-15T04:07:02;13.07;;;12.17;;
1276;SDS011;631;51.024;13.826;2023-05-15T04:09:29;12.70;;;11.80;;
1276;SDS011;631;51.024;13.826;2023-05-15T04:11:54;12.40;;;11.50;;
1276;SDS011;631;51.024;13.826;2023-05-15T04:14:20;12.10;;;11.30;;
1276;SDS011;631;51.024;13.826;2023-05-15T04:16:45;13.13;;;12.23;;
1276;SDS011;631;51.024;13.826;2023-05-15T04:19:11;12.87;;;12.00;;
1276;SDS011;631;51.024;13.826;2023-05-15T04:21:37;12.70;;;11.80;;
1276;SDS011;631;51.024;13.826;2023-05-15T04:24:02;13.00;;;12.10;;
1276;SDS011;631;51.024;13.826;2023-05-15T04:26:28;13.60;;;12.60;;
1276;SDS011;631;51.024;13.826;2023-05-15T04:28:54;12.93;;;12.00;;
1276;SDS011;631;51.024;13.826;2023-05-15T04:31:21;14.40;;;13.30;;
1276;SDS011;631;51.024;13.826;2023-05-15T04:33:47;13.90;;;12.90;;
1276;SDS011;631;51.024;13.826;2023-05-15T04:36:12;13.50;;;12.50;;
1276;SDS011;631;51.024;13.826;2023-05-15T04:38:38;14.77;;;13.67;;
1276;SDS011;631;51.024;13.826;2023-05-15T04:41:03;14.97;;;13.87;;
1276;SDS011;631;51.024;13.826;2023-05-15T04:43:29;15.33;;;14.13;;
1276;SDS011;631;51.024;13.826;2023-05-15T04:45:55;15.07;;;14.07;;
1276;SDS011;631;51.024;13.826;2023-05-15T04:48:21;15.23;;;14.13;;
1276;SDS011;631;51.024;13.826;2023-05-15T04:50:46;15.17;;;14.17;;
1276;SDS011;631;51.024;13.826;2023-05-15T04:53:12;14.87;;;13.87;;
1276;SDS011;631;51.024;13.826;2023-05-15T04:55:38;15.30;;;14.27;;
1276;SDS011;631;51.024;13.826;2023-05-15T04:58:04;15.77;;;14.67;;
1276;SDS011;631;51.024;13.826;2023-05-15T05:00:29;16.10;;;15.00;;
1276;SDS011;631;51.024;13.826;2023-05-15T05:02:55;14.60;;;13.60;;
1276;SDS011;631;51.024;13.826;2023-05-15T05:05:21;17.17;;;15.97;;
1276;SDS011;631;51.024;13.826;2023-05-15T05:07:47;16.53;;;15.33;;
1276;SDS011;631;51.024;13.826;2023-05-15T05:10:15;16.40;;;15.40;;
1276;SDS011;631;51.024;13.826;2023-05-15T05:12:41;15.30;;;14.30;;
1276;SDS011;631;51.024;13.826;2023-05-15T05:15:07;16.73;;;15.70;;
1276;SDS011;631;51.024;13.826;2023-05-15T05:17:33;16.07;;;14.97;;
1276;SDS011;631;51.024;13.826;2023-05-15T05:19:58;17.30;;;16.10;;
1276;SDS011;631;51.024;13.826;2023-05-15T05:22:24;16.03;;;14.93;;
1276;SDS011;631;51.024;13.826;2023-05-15T05:24:50;17.00;;;15.80;;
1276;SDS011;631;51.024;13.826;2023-05-15T05:27:16;16.87;;;15.77;;
1276;SDS011;631;51.024;13.826;2023-05-15T05:29:41;16.13;;;14.87;;
1276;SDS011;631;51.024;13.826;2023-05-15T05:32:07;16.40;;;15.10;;
1276;SDS011;631;51.024;13.826;2023-05-15T05:34:33;16.73;;;15.33;;
1276;SDS011;631;51.024;13.826;2023-05-15T05:36:59;17.40;;;16.20;;
1276;SDS011;631;51.024;13.826;2023-05-15T05:39:25;17.30;;;15.90;;
1276;SDS011;631;51.024;13.826;2023-05-15T05:41:50;16.63;;;15.53;;
1276;SDS011;631;51.024;13.826;2023-05-15T05:44:16;17.87;;;16.70;;
1276;SDS011;631;51.024;13.826;2023-05-15T05:46:41;17.37;;;16.30;;
1276;SDS011;631;51.024;13.826;2023-05-15T05:49:07;17.97;;;16.77;;
1276;SDS011;631;51.024;13.826;2023-05-15T05:51:35;17.30;;;16.00;;
1276;SDS011;631;51.024;13.826;2023-05-15T05:54:01;17.13;;;16.10;;
1276;SDS011;631;51.024;13.826;2023-05-15T05:56:27;17.50;;;16.30;;
1276;SDS011;631;51.024;13.826;2023-05-15T05:58:53;17.37;;;16.17;;
1276;SDS011;631;51.024;13.826;2023-05-15T06:01:20;17.60;;;16.50;;
1276;SDS011;631;51.024;13.826;2023-05-15T06:03:46;16.70;;;15.70;;
1276;SDS011;631;51.024;13.826;2023-05-15T06:06:11;15.87;;;14.87;;
1276;SDS011;631;51.024;13.826;2023-05-15T06:08:37;16.53;;;15.33;;
1276;SDS011;631;51.024;13.826;2023-05-15T06:11:03;16.20;;;15.20;;
1276;SDS011;631;51.024;13.826;2023-05-15T06:13:29;17.10;;;16.00;;
1276;SDS011;631;51.024;13.826;2023-05-15T06:15:55;16.57;;;15.57;;
1276;SDS011;631;51.024;13.826;2023-05-15T06:18:21;17.37;;;16.17;;
1276;SDS011;631;51.024;13.826;2023-05-15T06:20:46;18.77;;;17.17;;
1276;SDS011;631;51.024;13.826;2023-05-15T06:23:12;18.67;;;17.37;;
1276;SDS011;631;51.024;13.826;2023-05-15T06:25:38;18.27;;;17.00;;
1276;SDS011;631;51.024;13.826;2023-05-15T06:28:04;18.37;;;17.07;;
1276;SDS011;631;51.024;13.826;2023-05-15T06:30:29;18.50;;;17.20;;
1276;SDS011;631;51.024;13.826;2023-05-15T06:32:55;17.87;;;16.57;;
1276;SDS011;631;51.024;13.826;2023-05-15T06:35:20;18.20;;;16.90;;
1276;SDS011;631;51.024;13.826;2023-05-15T06:37:48;17.63;;;16.33;;
1276;SDS011;631;51.024;13.826;2023-05-15T06:40:14;18.23;;;17.03;;
1276;SDS011;631;51.024;13.826;2023-05-15T06:42:40;19.30;;;17.80;;
1276;SDS011;631;51.024;13.826;2023-05-15T06:45:06;18.07;;;16.77;;
1276;SDS011;631;51.024;13.826;2023-05-15T06:47:32;16.90;;;15.80;;
1276;SDS011;631;51.024;13.826;2023-05-15T06:49:58;17.87;;;16.67;;
1276;SDS011;631;51.024;13.826;2023-05-15T06:52:23;18.07;;;16.53;;
1276;SDS011;631;51.024;13.826;2023-05-15T06:54:49;17.33;;;16.03;;
1276;SDS011;631;51.024;13.826;2023-05-15T06:57:15;17.83;;;16.60;;
1276;SDS011;631;51.024;13.826;2023-05-15T06:59:41;17.60;;;16.43;;
1276;SDS011;631;51.024;13.826;2023-05-15T07:02:07;17.10;;;15.90;;
1276;SDS011;631;51.024;13.826;2023-05-15T07:04:33;18.10;;;16.80;;
1276;SDS011;631;51.024;13.826;2023-05-15T07:06:58;17.03;;;15.93;;
1276;SDS011;631;51.024;13.826;2023-05-15T07:09:24;17.30;;;16.10;;
1276;SDS011;631;51.024;13.826;2023-05-15T07:11:50;17.90;;;16.70;;
1276;SDS011;631;51.024;13.826;2023-05-15T07:14:15;17.10;;;16.00;;
1276;SDS011;631;51.024;13.826;2023-05-15T07:16:42;17.57;;;16.37;;
1276;SDS011;631;51.024;13.826;2023-05-15T07:19:09;17.20;;;16.07;;
1276;SDS011;631;51.024;13.826;2023-05-15T07:21:35;15.87;;;14.83;;
1276;SDS011;631;51.024;13.826;2023-05-15T07:24:00;18.03;;;16.83;;
1276;SDS011;631;51.024;13.826;2023-05-15T07:26:26;17.13;;;15.83;;
1276;SDS011;631;51.024;13.826;2023-05-15T07:28:52;17.37;;;16.20;;
1276;SDS011;631;51.024;13.826;2023-05-15T07:31:17;17.10;;;15.80;;
1276;SDS011;631;51.024;13.826;2023-05-15T07:33:44;18.13;;;16.83;;
1276;SDS011;631;51.024;13.826;2023-05-15T07:36:10;17.83;;;16.50;;
1276;SDS011;631;51.024;13.826;2023-05-15T07:38:35;15.93;;;14.93;;
1276;SDS011;631;51.024;13.826;2023-05-15T07:41:01;17.20;;;16.10;;
1276;SDS011;631;51.024;13.826;2023-05-15T07:43:26;16.30;;;15.23;;
1276;SDS011;631;51.024;13.826;2023-05-15T07:45:52;17.20;;;16.10;;
1276;SDS011;631;51.024;13.826;2023-05-15T07:48:18;17.23;;;16.03;;
1276;SDS011;631;51.024;13.826;2023-05-15T07:50:44;17.07;;;15.87;;
1276;SDS011;631;51.024;13.826;2023-05-15T07:53:14;17.13;;;15.93;;
1276;SDS011;631;51.024;13.826;2023-05-15T07:55:42;17.90;;;16.70;;
1276;SDS011;631;51.024;13.826;2023-05-15T07:58:08;17.07;;;15.87;;
1276;SDS011;631;51.024;13.826;2023-05-15T08:00:34;18.07;;;16.77;;
1276;SDS011;631;51.024;13.826;2023-05-15T08:03:00;17.57;;;16.27;;
1276;SDS011;631;51.024;13.826;2023-05-15T08:05:26;17.57;;;16.27;;
1276;SDS011;631;51.024;13.826;2023-05-15T08:07:53;18.17;;;16.87;;
1276;SDS011;631;51.024;13.826;2023-05-15T08:10:19;16.60;;;15.50;;
1276;SDS011;631;51.024;13.826;2023-05-15T08:12:45;17.47;;;16.20;;
1276;SDS011;631;51.024;13.826;2023-05-15T08:15:12;17.23;;;16.13;;
1276;SDS011;631;51.024;13.826;2023-05-15T08:17:37;17.40;;;16.20;;
1276;SDS011;631;51.024;13.826;2023-05-15T08:20:03;17.60;;;16.47;;
1276;SDS011;631;51.024;13.826;2023-05-15T08:22:29;18.27;;;17.07;;
1276;SDS011;631;51.024;13.826;2023-05-15T08:24:55;17.67;;;16.47;;
1276;SDS011;631;51.024;13.826;2023-05-15T08:27:22;17.80;;;16.67;;
1276;SDS011;631;51.024;13.826;2023-05-15T08:29:47;17.20;;;16.20;;
1276;SDS011;631;51.024;13.826;2023-05-15T08:32:13;17.67;;;16.57;;
1276;SDS011;631;51.024;13.826;2023-05-15T08:34:39;17.50;;;16.40;;
1276;SDS011;631;51.024;13.826;2023-05-15T08:37:04;18.40;;;17.30;;
1276;SDS011;631;51.024;13.826;2023-05-15T08:39:30;18.87;;;17.57;;
1276;SDS011;631;51.024;13.826;2023-05-15T08:44:31;17.13;;;15.90;;
1276;SDS011;631;51.024;13.826;2023-05-15T08:46:57;18.67;;;17.53;;
1276;SDS011;631;51.024;13.826;2023-05-15T08:52:14;17.80;;;16.50;;
1276;SDS011;631;51.024;13.826;2023-05-15T08:54:40;18.30;;;17.10;;
1276;SDS011;631;51.024;13.826;2023-05-15T08:57:06;18.10;;;16.90;;
1276;SDS011;631;51.024;13.826;2023-05-15T08:59:33;18.10;;;17.00;;
1276;SDS011;631;51.024;13.826;2023-05-15T09:01:59;19.03;;;17.67;;
1276;SDS011;631;51.024;13.826;2023-05-15T09:04:25;17.60;;;16.40;;
1276;SDS011;631;51.024;13.826;2023-05-15T09:06:51;18.40;;;17.20;;
1276;SDS011;631;51.024;13.826;2023-05-15T09:09:17;17.83;;;16.67;;
1276;SDS011;631;51.024;13.826;2023-05-15T09:11:45;17.73;;;16.50;;
1276;SDS011;631;51.024;13.826;2023-05-15T09:14:12;18.83;;;17.43;;
1276;SDS011;631;51.024;13.826;2023-05-15T09:16:38;17.30;;;16.27;;
1276;SDS011;631;51.024;13.826;2023-05-15T09:19:04;18.23;;;17.13;;
1276;SDS011;631;51.024;13.826;2023-05-15T09:21:31;17.50;;;16.40;;
1276;SDS011;631;51.024;13.826;2023-05-15T09:26:38;18.37;;;17.17;;
1276;SDS011;631;51.024;13.826;2023-05-15T09:29:04;18.23;;;17.13;;
1276;SDS011;631;51.024;13.826;2023-05-15T09:31:30;18.80;;;17.70;;
1276;SDS011;631;51.024;13.826;2023-05-15T09:33:59;18.27;;;17.07;;
1276;SDS011;631;51.024;13.826;2023-05-15T09:36:25;18.10;;;16.90;;
1276;SDS011;631;51.024;13.826;2023-05-15T09:38:56;18.00;;;16.80;;
1276;SDS011;631;51.024;13.826;2023-05-15T09:41:24;18.33;;;17.13;;
1276;SDS011;631;51.024;13.826;2023-05-15T09:43:53;18.63;;;17.43;;
1276;SDS011;631;51.024;13.826;2023-05-15T09:46:21;18.20;;;17.10;;
1276;SDS011;631;51.024;13.826;2023-05-15T09:48:47;19.93;;;18.63;;
1276;SDS011;631;51.024;13.826;2023-05-15T09:51:17;19.13;;;17.73;;
1276;SDS011;631;51.024;13.826;2023-05-15T09:53:53;19.23;;;18.03;;
1276;SDS011;631;51.024;13.826;2023-05-15T09:56:19;19.80;;;18.50;;
1276;SDS011;631;51.024;13.826;2023-05-15T09:58:55;16.67;;;15.57;;
1276;SDS011;631;51.024;13.826;2023-05-15T10:01:22;19.23;;;18.03;;
1276;SDS011;631;51.024;13.826;2023-05-15T10:03:55;19.60;;;18.23;;
1276;SDS011;631;51.024;13.826;2023-05-15T10:06:33;19.13;;;17.93;;
1276;SDS011;631;51.024;13.826;2023-05-15T10:09:00;20.33;;;18.93;;
1276;SDS011;631;51.024;13.826;2023-05-15T10:11:27;18.80;;;17.60;;
1276;SDS011;631;51.024;13.826;2023-05-15T10:13:58;19.87;;;18.10;;
1276;SDS011;631;51.024;13.826;2023-05-15T10:16:24;18.60;;;17.20;;
1276;SDS011;631;51.024;13.826;2023-05-15T10:18:51;19.37;;;18.10;;
1276;SDS011;631;51.024;13.826;2023-05-15T10:21:18;18.47;;;17.33;;
1276;SDS011;631;51.024;13.826;2023-05-15T10:23:44;18.33;;;17.10;;
1276;SDS011;631;51.024;13.826;2023-05-15T10:26:34;18.37;;;17.17;;
1276;SDS011;631;51.024;13.826;2023-05-15T10:28:57;18.17;;;17.07;;
1276;SDS011;631;51.024;13.826;2023-05-15T10:31:25;18.03;;;17.00;;
1276;SDS011;631;51.024;13.826;2023-05-15T10:33:51;17.70;;;16.60;;
1276;SDS011;631;51.024;13.826;2023-05-15T10:36:19;16.70;;;15.70;;
1276;SDS011;631;51.024;13.826;2023-05-15T10:38:45;17.03;;;16.00;;
1276;SDS011;631;51.024;13.826;2023-05-15T10:41:12;19.00;;;17.80;;
1276;SDS011;631;51.024;13.826;2023-05-15T10:43:41;18.00;;;16.80;;
1276;SDS011;631;51.024;13.826;2023-05-15T10:46:07;16.87;;;15.87;;
1276;SDS011;631;51.024;13.826;2023-05-15T10:48:34;18.00;;;16.80;;
1276;SDS011;631;51.024;13.826;2023-05-15T10:51:00;18.87;;;17.67;;
1276;SDS011;631;51.024;13.826;2023-05-15T10:53:26;17.00;;;16.00;;
1276;SDS011;631;51.024;13.826;2023-05-15T10:55:51;18.00;;;16.70;;
1276;SDS011;631;51.024;13.826;2023-05-15T10:58:21;18.00;;;16.70;;
1276;SDS011;631;51.024;13.826;2023-05-15T11:00:47;16.87;;;15.87;;
1276;SDS011;631;51.024;13.826;2023-05-15T11:03:13;17.70;;;16.27;;
1276;SDS011;631;51.024;13.826;2023-05-15T11:08:32;17.87;;;16.77;;
1276;SDS011;631;51.024;13.826;2023-05-15T11:10:57;16.60;;;15.47;;
1276;SDS011;631;51.024;13.826;2023-05-15T11:13:23;16.50;;;15.60;;
1276;SDS011;631;51.024;13.826;2023-05-15T11:15:49;16.63;;;15.63;;
1276;SDS011;631;51.024;13.826;2023-05-15T11:18:15;17.07;;;15.97;;
1276;SDS011;631;51.024;13.826;2023-05-15T11:21:04;16.33;;;15.37;;
1276;SDS011;631;51.024;13.826;2023-05-15T11:23:27;15.40;;;14.40;;
1276;SDS011;631;51.024;13.826;2023-05-15T11:25:54;16.93;;;15.93;;
1276;SDS011;631;51.024;13.826;2023-05-15T11:28:21;15.80;;;14.90;;
1276;SDS011;631;51.024;13.826;2023-05-15T11:30:52;16.03;;;14.90;;
1276;SDS011;631;51.024;13.826;2023-05-15T11:33:23;15.60;;;14.80;;
1276;SDS011;631;51.024;13.826;2023-05-15T11:35:56;15.63;;;14.73;;
1276;SDS011;631;51.024;13.826;2023-05-15T11:38:24;15.80;;;15.00;;
1276;SDS011;631;51.024;13.826;2023-05-15T11:43:21;15.03;;;14.00;;
1276;SDS011;631;51.024;13.826;2023-05-15T11:48:22;14.57;;;13.67;;
1276;SDS011;631;51.024;13.826;2023-05-15T11:50:48;15.90;;;15.00;;
1276;SDS011;631;51.024;13.826;2023-05-15T11:53:15;16.83;;;15.60;;
1276;SDS011;631;51.024;13.826;2023-05-15T11:55:43;16.47;;;15.47;;
1276;SDS011;631;51.024;13.826;2023-05-15T11:58:12;16.27;;;14.97;;
1276;SDS011;631;51.024;13.826;2023-05-15T12:00:40;16.23;;;15.23;;
1276;SDS011;631;51.024;13.826;2023-05-15T12:03:10;15.30;;;14.40;;
1276;SDS011;631;51.024;13.826;2023-05-15T12:05:48;17.37;;;16.17;;
1276;SDS011;631;51.024;13.826;2023-05-15T12:08:14;16.77;;;15.70;;
1276;SDS011;631;51.024;13.826;2023-05-15T12:10:43;17.90;;;16.60;;
1276;SDS011;631;51.024;13.826;2023-05-15T12:13:12;19.60;;;18.40;;
1276;SDS011;631;51.024;13.826;2023-05-15T12:15:41;20.40;;;19.10;;
1276;SDS011;631;51.024;13.826;2023-05-15T12:18:08;21.33;;;19.93;;
1276;SDS011;631;51.024;13.826;2023-05-15T12:20:34;21.10;;;19.60;;
1276;SDS011;631;51.024;13.826;2023-05-15T12:23:05;21.50;;;19.90;;
1276;SDS011;631;51.024;13.826;2023-05-15T12:25:32;20.47;;;18.87;;
1276;SDS011;631;51.024;13.826;2023-05-15T12:28:00;21.00;;;19.60;;
1276;SDS011;631;51.024;13.826;2023-05-15T12:30:32;20.60;;;18.90;;
1276;SDS011;631;51.024;13.826;2023-05-15T12:33:01;21.40;;;20.00;;
1276;SDS011;631;51.024;13.826;2023-05-15T12:35:28;21.57;;;20.17;;
1276;SDS011;631;51.024;13.826;2023-05-15T12:37:54;21.10;;;19.60;;
1276;SDS011;631;51.024;13.826;2023-05-15T12:40:22;19.80;;;18.50;;
1276;SDS011;631;51.024;13.826;2023-05-15T12:42:52;19.47;;;18.20;;
1276;SDS011;631;51.024;13.826;2023-05-15T12:45:19;19.03;;;17.73;;
1276;SDS011;631;51.024;13.826;2023-05-15T12:47:47;19.50;;;18.17;;
1276;SDS011;631;51.024;13.826;2023-05-15T12:50:14;21.77;;;20.13;;
1276;SDS011;631;51.024;13.826;2023-05-15T12:55:21;17.20;;;16.00;;
1276;SDS011;631;51.024;13.826;2023-05-15T12:57:56;18.40;;;17.07;;
1276;SDS011;631;51.024;13.826;2023-05-15T13:00:23;17.07;;;15.90;;
1276;SDS011;631;51.024;13.826;2023-05-15T13:02:53;17.80;;;16.57;;
1276;SDS011;631;51.024;13.826;2023-05-15T13:05:24;17.10;;;15.90;;
1276;SDS011;631;51.024;13.826;2023-05-15T13:07:51;17.80;;;16.60;;
1276;SDS011;631;51.024;13.826;2023-05-15T13:10:19;15.97;;;14.80;;
1276;SDS011;631;51.024;13.826;2023-05-15T13:12:49;17.50;;;16.27;;
1276;SDS011;631;51.024;13.826;2023-05-15T13:15:38;16.37;;;15.27;;
1276;SDS011;631;51.024;13.826;2023-05-15T13:18:07;15.80;;;14.80;;
1276;SDS011;631;51.024;13.826;2023-05-15T13:20:39;15.90;;;15.00;;
1276;SDS011;631;51.024;13.826;2023-05-15T13:23:10;16.90;;;15.90;;
1276;SDS011;631;51.024;13.826;2023-05-15T13:25:41;15.47;;;14.50;;
1276;SDS011;631;51.024;13.826;2023-05-15T13:28:07;20.10;;;18.80;;
1276;SDS011;631;51.024;13.826;2023-05-15T13:30:34;20.50;;;19.20;;
1276;SDS011;631;51.024;13.826;2023-05-15T13:33:01;26.60;;;24.80;;
1276;SDS011;631;51.024;13.826;2023-05-15T13:35:27;29.03;;;27.17;;
1276;SDS011;631;51.024;13.826;2023-05-15T13:37:53;27.97;;;26.00;;
1276;SDS011;631;51.024;13.826;2023-05-15T13:40:20;28.23;;;26.50;;
1276;SDS011;631;51.024;13.826;2023-05-15T13:42:45;29.67;;;27.63;;
1276;SDS011;631;51.024;13.826;2023-05-15T13:45:12;28.40;;;26.50;;
1276;SDS011;631;51.024;13.826;2023-05-15T13:47:38;28.50;;;26.50;;
1276;SDS011;631;51.024;13.826;2023-05-15T13:50:05;27.33;;;25.43;;
1276;SDS011;631;51.024;13.826;2023-05-15T13:52:31;27.63;;;25.60;;
1276;SDS011;631;51.024;13.826;2023-05-15T13:54:57;27.70;;;25.67;;
1276;SDS011;631;51.024;13.826;2023-05-15T13:57:22;27.53;;;25.53;;
1276;SDS011;631;51.024;13.826;2023-05-15T13:59:48;27.73;;;25.70;;
1276;SDS011;631;51.024;13.826;2023-05-15T14:02:14;28.60;;;26.47;;
1276;SDS011;631;51.024;13.826;2023-05-15T14:04:40;27.37;;;25.37;;
1276;SDS011;631;51.024;13.826;2023-05-15T14:07:05;27.20;;;25.23;;
1276;SDS011;631;51.024;13.826;2023-05-15T14:09:31;28.40;;;26.50;;
1276;SDS011;631;51.024;13.826;2023-05-15T14:11:56;28.17;;;26.17;;
1276;SDS011;631;51.024;13.826;2023-05-15T14:14:22;27.20;;;25.40;;
1276;SDS011;631;51.024;13.826;2023-05-15T14:16:48;24.77;;;23.07;;
1276;SDS011;631;51.024;13.826;2023-05-15T14:19:13;26.60;;;24.80;;
1276;SDS011;631;51.024;13.826;2023-05-15T14:21:39;24.60;;;23.00;;
1276;SDS011;631;51.024;13.826;2023-05-15T14:24:05;23.30;;;21.80;;
1276;SDS011;631;51.024;13.826;2023-05-15T14:26:31;21.87;;;20.47;;
1276;SDS011;631;51.024;13.826;2023-05-15T14:28:57;23.40;;;21.70;;
1276;SDS011;631;51.024;13.826;2023-05-15T14:31:23;21.90;;;20.40;;
1276;SDS011;631;51.024;13.826;2023-05-15T14:33:49;21.20;;;19.80;;
1276;SDS011;631;51.024;13.826;2023-05-15T14:36:15;22.10;;;20.60;;
1276;SDS011;631;51.024;13.826;2023-05-15T14:38:41;21.70;;;20.00;;
1276;SDS011;631;51.024;13.826;2023-05-15T14:41:09;19.97;;;18.43;;
1276;SDS011;631;51.024;13.826;2023-05-15T14:43:35;21.60;;;20.20;;
1276;SDS011;631;51.024;13.826;2023-05-15T14:46:01;20.73;;;19.00;;
1276;SDS011;631;51.024;13.826;2023-05-15T14:48:27;20.40;;;19.10;;
1276;SDS011;631;51.024;13.826;2023-05-15T14:50:54;19.97;;;18.67;;
1276;SDS011;631;51.024;13.826;2023-05-15T14:53:20;18.83;;;17.73;;
1276;SDS011;631;51.024;13.826;2023-05-15T14:55:46;20.53;;;19.23;;
1276;SDS011;631;51.024;13.826;2023-05-15T14:58:11;18.77;;;17.57;;
1276;SDS011;631;51.024;13.826;2023-05-15T15:00:38;20.10;;;18.90;;
1276;SDS011;631;51.024;13.826;2023-05-15T15:03:03;19.67;;;18.37;;
1276;SDS011;631;51.024;13.826;2023-05-15T15:05:29;18.83;;;17.53;;
1276;SDS011;631;51.024;13.826;2023-05-15T15:07:58;21.50;;;20.00;;
1276;SDS011;631;51.024;13.826;2023-05-15T15:10:25;19.93;;;18.67;;
1276;SDS011;631;51.024;13.826;2023-05-15T15:12:52;19.40;;;18.10;;
1276;SDS011;631;51.024;13.826;2023-05-15T15:15:18;19.30;;;18.00;;
1276;SDS011;631;51.024;13.826;2023-05-15T15:17:44;19.20;;;17.90;;